Time;durP1;ratioP1;P1;durP2;ratioP2;P2;SDS_P1;SDS_P2;PMS_P1;PMS_P2;Temp;Humidity;BMP_temperature;BMP_pressure;BME280_temperature;BME280_humidity;BME280_pressure;Samples;Min_cycle;Max_cycle;Signal;HPM_P1;HPM_P2
2023/09/25 00:00:18;;;;;;;0.40;0.30;;;11.30;99.90;;;;;;5008327;28;20171;-79
2023/09/25 00:02:44;;;;;;;0.40;0.22;;;11.30;99.90;;;;;;4988502;28;20442;-78
2023/09/25 00:05:09;;;;;;;0.77;0.50;;;11.40;99.90;;;;;;4995288;28;20484;-81
2023/09/25 00:07:35;;;;;;;0.40;0.30;;;11.30;99.90;;;;;;4982386;28;21103;-82
2023/09/25 00:10:00;;;;;;;0.40;0.20;;;11.30;99.90;;;;;;4980298;28;20210;-82
2023/09/25 00:12:26;;;;;;;0.40;0.20;;;11.30;99.90;;;;;;4993249;28;20210;-82
2023/09/25 00:14:51;;;;;;;0.40;0.30;;;11.20;99.90;;;;;;4993255;28;20693;-82
2023/09/25 00:17:17;;;;;;;0.40;0.20;;;11.20;99.90;;;;;;4995118;28;20194;-83
2023/09/25 00:19:42;;;;;;;0.40;0.30;;;11.10;99.90;;;;;;4995414;28;20260;-80
2023/09/25 00:22:07;;;;;;;0.40;0.20;;;10.90;99.90;;;;;;4996282;28;20324;-80
2023/09/25 00:24:33;;;;;;;0.57;0.57;;;10.70;99.90;;;;;;4996271;28;20215;-79
2023/09/25 00:26:58;;;;;;;0.40;0.20;;;10.70;99.90;;;;;;4982663;28;22292;-83
2023/09/25 00:29:24;;;;;;;0.40;0.20;;;10.70;99.90;;;;;;4995786;28;20244;-79
2023/09/25 00:31:50;;;;;;;0.40;0.30;;;10.50;99.90;;;;;;4993414;28;20265;-76
2023/09/25 00:34:15;;;;;;;0.40;0.30;;;10.30;99.90;;;;;;4988439;28;20237;-80
2023/09/25 00:36:41;;;;;;;0.40;0.20;;;10.30;99.90;;;;;;4994289;28;20206;-78
2023/09/25 00:39:07;;;;;;;0.40;0.20;;;10.20;99.90;;;;;;4990993;28;20198;-82
2023/09/25 00:41:33;;;;;;;0.40;0.20;;;10.20;99.90;;;;;;4979885;28;20200;-84
2023/09/25 00:43:59;;;;;;;0.40;0.20;;;10.10;99.90;;;;;;4994824;28;20218;-78
2023/09/25 00:46:24;;;;;;;0.40;0.30;;;10.00;99.90;;;;;;4997091;28;20211;-80
2023/09/25 00:48:50;;;;;;;0.40;0.20;;;;;;;;;;5001223;28;20190;-81
2023/09/25 00:51:16;;;;;;;0.40;0.20;;;10.00;99.90;;;;;;4976469;28;20927;-84
2023/09/25 00:53:45;;;;;;;0.40;0.20;;;10.00;99.90;;;;;;4996681;28;20449;-83
2023/09/25 00:56:10;;;;;;;0.40;0.20;;;10.10;99.90;;;;;;4982639;28;20501;-81
2023/09/25 00:58:36;;;;;;;0.40;0.20;;;10.10;99.90;;;;;;4994491;28;20911;-81
2023/09/25 01:01:02;;;;;;;0.40;0.20;;;;;;;;;;4994539;28;20202;-82
2023/09/25 01:03:30;;;;;;;0.40;0.30;;;10.00;99.90;;;;;;4982408;28;20210;-84
2023/09/25 01:05:56;;;;;;;0.40;0.20;;;9.80;99.90;;;;;;4994814;28;20210;-79
2023/09/25 01:08:21;;;;;;;0.50;0.50;;;9.70;99.90;;;;;;4994059;28;20250;-76
2023/09/25 01:10:47;;;;;;;0.50;0.40;;;9.70;99.90;;;;;;4999069;28;20250;-78
2023/09/25 01:13:12;;;;;;;0.40;0.20;;;9.70;99.90;;;;;;4981965;28;20723;-82
2023/09/25 01:15:38;;;;;;;0.40;0.20;;;;;;;;;;4980963;28;20741;-85
2023/09/25 01:18:04;;;;;;;0.40;0.30;;;9.90;99.90;;;;;;4975697;28;20190;-82
2023/09/25 01:20:30;;;;;;;0.40;0.20;;;9.80;99.90;;;;;;4995587;28;20194;-77
2023/09/25 01:22:55;;;;;;;0.40;0.20;;;9.80;99.90;;;;;;4994411;28;20208;-81
2023/09/25 01:25:23;;;;;;;0.40;0.23;;;;;;;;;;4979066;28;20218;-81
2023/09/25 01:27:48;;;;;;;0.40;0.20;;;9.80;99.90;;;;;;4977996;28;20182;-83
2023/09/25 01:30:16;;;;;;;0.40;0.30;;;9.70;99.90;;;;;;4978223;28;20185;-83
2023/09/25 01:32:44;;;;;;;0.40;0.30;;;9.80;99.90;;;;;;4979357;28;20578;-83
2023/09/25 01:35:14;;;;;;;0.40;0.20;;;9.80;99.90;;;;;;4990674;28;20321;-82
2023/09/25 01:37:40;;;;;;;0.40;0.20;;;9.80;99.90;;;;;;4994845;28;20190;-81
2023/09/25 01:40:12;;;;;;;0.40;0.20;;;9.70;99.90;;;;;;4979758;28;20218;-79
2023/09/25 01:42:39;;;;;;;0.40;0.20;;;;;;;;;;4997129;28;20189;-83
2023/09/25 01:45:05;;;;;;;0.40;0.30;;;9.40;99.90;;;;;;4997814;28;20210;-77
2023/09/25 01:47:31;;;;;;;0.40;0.30;;;9.40;99.90;;;;;;4997620;28;20194;-83
2023/09/25 01:49:57;;;;;;;0.40;0.20;;;9.20;99.90;;;;;;4980732;28;20191;-82
2023/09/25 01:52:22;;;;;;;0.40;0.20;;;9.50;99.90;;;;;;5000779;28;20254;-80
2023/09/25 01:54:50;;;;;;;0.40;0.30;;;8.60;99.90;;;;;;4980882;28;20218;-83
2023/09/25 01:57:16;;;;;;;0.40;0.30;;;8.50;99.90;;;;;;4995271;28;20270;-83
2023/09/25 01:59:42;;;;;;;0.40;0.30;;;;;;;;;;4983054;28;22860;-78
2023/09/25 02:02:07;;;;;;;0.40;0.20;;;8.10;99.90;;;;;;4994113;28;20692;-79
2023/09/25 02:04:33;;;;;;;0.40;0.20;;;7.90;99.90;;;;;;4987155;28;20589;-80
2023/09/25 02:06:58;;;;;;;0.40;0.20;;;7.90;99.90;;;;;;4995033;28;20191;-78
2023/09/25 02:09:24;;;;;;;0.40;0.30;;;;;;;;;;4981146;28;20187;-77
2023/09/25 02:11:50;;;;;;;0.40;0.27;;;7.80;99.90;;;;;;4978949;28;20444;-83
2023/09/25 02:14:15;;;;;;;0.40;0.20;;;7.80;99.90;;;;;;5001428;28;20449;-80
2023/09/25 02:16:41;;;;;;;0.40;0.30;;;7.90;99.90;;;;;;5005314;28;20217;-77
2023/09/25 02:19:07;;;;;;;0.40;0.20;;;7.70;99.90;;;;;;4990091;28;20186;-84
2023/09/25 02:21:33;;;;;;;0.40;0.30;;;;;;;;;;5003626;28;20198;-78
2023/09/25 02:23:58;;;;;;;0.40;0.30;;;7.80;99.90;;;;;;4992493;28;20521;-80
2023/09/25 02:26:25;;;;;;;0.40;0.20;;;7.80;99.90;;;;;;5006304;28;20461;-78
2023/09/25 02:28:51;;;;;;;0.40;0.25;;;8.50;99.90;;;;;;4989559;28;20182;-80
2023/09/25 02:31:16;;;;;;;0.40;0.30;;;7.70;99.90;;;;;;4985731;28;20539;-85
2023/09/25 02:33:42;;;;;;;0.40;0.20;;;7.60;99.90;;;;;;4997651;28;20198;-81
2023/09/25 02:36:09;;;;;;;0.40;0.20;;;7.40;99.90;;;;;;4980680;28;20285;-84
2023/09/25 02:38:35;;;;;;;0.40;0.25;;;7.30;99.90;;;;;;4978924;28;20190;-84
2023/09/25 02:41:01;;;;;;;0.40;0.30;;;7.20;99.90;;;;;;4995871;28;20290;-81
2023/09/25 02:43:27;;;;;;;0.40;0.20;;;7.30;99.90;;;;;;4983212;28;20291;-78
2023/09/25 02:45:53;;;;;;;0.40;0.20;;;7.20;99.90;;;;;;4982790;28;20214;-81
2023/09/25 02:48:18;;;;;;;0.40;0.30;;;7.10;99.90;;;;;;4975234;28;20194;-82
2023/09/25 02:50:44;;;;;;;0.40;0.30;;;;;;;;;;4996785;28;20898;-82
2023/09/25 02:53:10;;;;;;;0.40;0.20;;;7.10;99.90;;;;;;4979382;28;20191;-80
2023/09/25 02:55:36;;;;;;;0.40;0.20;;;7.00;99.90;;;;;;4982293;28;20476;-86
2023/09/25 02:58:01;;;;;;;0.40;0.30;;;7.00;99.90;;;;;;4996821;28;20272;-79
2023/09/25 03:00:27;;;;;;;0.40;0.20;;;7.00;99.90;;;;;;4993715;28;20214;-78
2023/09/25 03:02:52;;;;;;;0.40;0.20;;;7.00;99.90;;;;;;4982353;28;20194;-80
2023/09/25 03:05:19;;;;;;;0.40;0.30;;;7.10;99.90;;;;;;4980732;28;20221;-81
2023/09/25 03:07:45;;;;;;;0.40;0.30;;;7.10;99.90;;;;;;4992334;28;20203;-80
2023/09/25 03:10:11;;;;;;;0.40;0.20;;;7.00;99.90;;;;;;4996761;28;20186;-78
2023/09/25 03:12:37;;;;;;;0.40;0.20;;;7.00;99.90;;;;;;4999644;28;20554;-78
2023/09/25 03:15:04;;;;;;;0.40;0.20;;;6.90;99.90;;;;;;4998510;28;20230;-78
2023/09/25 03:17:31;;;;;;;0.40;0.20;;;6.90;99.90;;;;;;4982042;28;20194;-78
2023/09/25 03:19:57;;;;;;;0.40;0.20;;;6.80;99.90;;;;;;4997298;28;20198;-81
2023/09/25 03:22:23;;;;;;;0.40;0.27;;;6.90;99.90;;;;;;4987203;28;20202;-84
2023/09/25 03:24:48;;;;;;;0.40;0.20;;;6.90;99.90;;;;;;5004553;28;20202;-77
2023/09/25 03:27:15;;;;;;;0.40;0.20;;;6.90;99.90;;;;;;5004187;28;21182;-83
2023/09/25 03:29:41;;;;;;;0.40;0.20;;;6.90;99.90;;;;;;4983436;28;20194;-80
2023/09/25 03:32:07;;;;;;;0.40;0.30;;;7.00;99.90;;;;;;4999648;28;20330;-81
2023/09/25 03:34:32;;;;;;;4.10;1.60;;;;;;;;;;4995215;28;20206;-78
2023/09/25 03:36:58;;;;;;;0.40;0.23;;;6.90;99.90;;;;;;4978960;28;20592;-84
2023/09/25 03:39:24;;;;;;;0.40;0.30;;;;;;;;;;4972019;28;20449;-81
2023/09/25 03:41:49;;;;;;;0.40;0.30;;;7.10;99.90;;;;;;4994543;28;20190;-79
2023/09/25 03:44:15;;;;;;;0.40;0.20;;;7.10;99.90;;;;;;4996514;28;20464;-78
2023/09/25 03:46:40;;;;;;;0.40;0.20;;;7.30;99.90;;;;;;4982334;28;20210;-77
2023/09/25 03:49:07;;;;;;;0.33;0.20;;;7.40;99.90;;;;;;4976361;28;20194;-84
2023/09/25 03:51:33;;;;;;;0.40;0.20;;;7.40;99.90;;;;;;4997733;28;20194;-80
2023/09/25 03:53:59;;;;;;;0.47;0.35;;;7.40;99.90;;;;;;4994166;28;20197;-81
2023/09/25 03:56:25;;;;;;;0.40;0.30;;;7.40;99.90;;;;;;4980921;28;20861;-80
2023/09/25 03:58:51;;;;;;;0.40;0.30;;;7.20;99.90;;;;;;4993840;28;20549;-81
2023/09/25 04:01:17;;;;;;;0.40;0.20;;;7.20;99.90;;;;;;4985825;28;20197;-81
2023/09/25 04:03:43;;;;;;;0.40;0.25;;;7.10;99.90;;;;;;4982066;28;20753;-81
2023/09/25 04:06:09;;;;;;;0.40;0.20;;;7.00;99.90;;;;;;4978744;28;20210;-82
2023/09/25 04:08:34;;;;;;;0.40;0.20;;;6.90;99.90;;;;;;4994037;28;20187;-81
2023/09/25 04:11:00;;;;;;;0.40;0.20;;;6.80;99.90;;;;;;4975778;28;20190;-78
2023/09/25 04:13:26;;;;;;;0.40;0.20;;;6.80;99.90;;;;;;4991043;28;20849;-79
2023/09/25 04:15:52;;;;;;;0.40;0.20;;;6.80;99.90;;;;;;4991576;28;20764;-78
2023/09/25 04:18:18;;;;;;;0.40;0.20;;;6.90;99.90;;;;;;4973481;28;20258;-83
2023/09/25 04:20:45;;;;;;;0.40;0.30;;;6.90;99.90;;;;;;5001509;28;20429;-84
2023/09/25 04:23:11;;;;;;;0.40;0.20;;;;;;;;;;5000972;28;20734;-78
2023/09/25 04:25:37;;;;;;;0.40;0.20;;;6.90;99.90;;;;;;4996851;28;20214;-80
2023/09/25 04:28:03;;;;;;;0.37;0.20;;;6.90;99.90;;;;;;4980065;28;20437;-84
2023/09/25 04:30:29;;;;;;;0.40;0.30;;;6.90;99.90;;;;;;4987319;28;20619;-79
2023/09/25 04:32:55;;;;;;;0.37;0.23;;;;;;;;;;4997272;28;20528;-82
2023/09/25 04:35:21;;;;;;;0.40;0.30;;;6.80;99.90;;;;;;5012906;28;20445;-76
2023/09/25 04:37:47;;;;;;;0.40;0.20;;;6.80;99.90;;;;;;5000390;28;20206;-81
2023/09/25 04:40:30;;;;;;;0.40;0.20;;;6.70;99.90;;;;;;4980614;28;20198;-80
2023/09/25 04:42:56;;;;;;;0.40;0.20;;;6.70;99.90;;;;;;4992786;28;20495;-81
2023/09/25 04:45:23;;;;;;;0.40;0.20;;;6.60;99.90;;;;;;4973197;28;20238;-82
2023/09/25 04:47:51;;;;;;;0.40;0.30;;;6.60;99.90;;;;;;4973057;28;20247;-79
2023/09/25 04:50:18;;;;;;;0.40;0.20;;;6.50;99.90;;;;;;4986642;28;20198;-85
2023/09/25 04:52:44;;;;;;;0.40;0.20;;;6.40;99.90;;;;;;4985767;28;20318;-79
2023/09/25 04:55:11;;;;;;;0.30;0.20;;;6.40;99.90;;;;;;4988433;28;20257;-82
2023/09/25 04:57:42;;;;;;;0.40;0.30;;;6.40;99.90;;;;;;4973036;28;20462;-82
2023/09/25 05:00:25;;;;;;;1.30;1.20;;;6.30;99.90;;;;;;4989503;28;20206;-77
2023/09/25 05:02:53;;;;;;;0.30;0.20;;;6.20;99.90;;;;;;4976689;28;20197;-81
2023/09/25 05:05:19;;;;;;;0.38;0.20;;;6.20;99.90;;;;;;4985564;28;20520;-80
2023/09/25 05:07:49;;;;;;;0.40;0.30;;;6.10;99.90;;;;;;4989418;28;20190;-82
2023/09/25 05:10:17;;;;;;;0.40;0.30;;;6.10;99.90;;;;;;4974480;28;20209;-82
2023/09/25 05:12:44;;;;;;;0.40;0.30;;;6.10;99.90;;;;;;4996398;28;20308;-78
2023/09/25 05:15:13;;;;;;;0.40;0.20;;;6.20;99.90;;;;;;4980801;28;21120;-83
2023/09/25 05:17:40;;;;;;;0.40;0.30;;;6.10;99.90;;;;;;4964901;28;20209;-76
2023/09/25 05:20:10;;;;;;;0.40;0.20;;;6.20;99.90;;;;;;4978699;28;20182;-82
2023/09/25 05:22:39;;;;;;;0.40;0.30;;;6.30;99.90;;;;;;4997996;28;20202;-84
2023/09/25 05:25:09;;;;;;;0.38;0.25;;;6.30;99.90;;;;;;4983417;28;20217;-78
2023/09/25 05:27:40;;;;;;;0.40;0.20;;;6.40;99.90;;;;;;4976809;28;21294;-78
2023/09/25 05:30:10;;;;;;;0.38;0.28;;;6.40;99.90;;;;;;4978313;28;21114;-77
2023/09/25 05:32:41;;;;;;;0.52;0.52;;;6.50;99.90;;;;;;4996342;28;20186;-81
2023/09/25 05:35:08;;;;;;;0.40;0.20;;;7.60;99.90;;;;;;4994017;28;20213;-80
2023/09/25 05:37:34;;;;;;;0.40;0.30;;;7.90;99.90;;;;;;4999843;28;20194;-80
2023/09/25 05:40:00;;;;;;;0.30;0.20;;;8.90;99.90;;;;;;4982410;28;20233;-80
2023/09/25 05:42:26;;;;;;;0.40;0.30;;;10.10;99.90;;;;;;4996503;28;20232;-76
2023/09/25 05:44:52;;;;;;;0.37;0.20;;;;;;;;;;5006488;28;20217;-84
2023/09/25 05:47:17;;;;;;;0.40;0.30;;;13.00;99.90;;;;;;4979862;28;20270;-84
2023/09/25 05:49:43;;;;;;;0.40;0.30;;;;;;;;;;4981059;28;20445;-84
2023/09/25 05:52:09;;;;;;;0.40;0.20;;;15.70;99.90;;;;;;4980614;28;20532;-82
2023/09/25 05:54:34;;;;;;;0.40;0.30;;;18.70;99.90;;;;;;4982658;28;20452;-80
2023/09/25 05:57:01;;;;;;;0.40;0.30;;;;;;;;;;4977325;28;20190;-83
2023/09/25 05:59:27;;;;;;;0.40;0.20;;;;;;;;;;4978630;28;20199;-82
2023/09/25 06:01:53;;;;;;;0.40;0.30;;;21.30;99.90;;;;;;4974896;28;21756;-77
2023/09/25 06:04:19;;;;;;;0.40;0.30;;;23.60;99.90;;;;;;4995189;28;20468;-77
2023/09/25 06:06:44;;;;;;;0.40;0.30;;;23.00;99.90;;;;;;5001128;28;20831;-82
2023/09/25 06:09:15;;;;;;;0.40;0.30;;;24.00;99.90;;;;;;4999955;28;21118;-83
2023/09/25 06:11:41;;;;;;;0.40;0.20;;;;;;;;;;4999325;28;20183;-82
2023/09/25 06:14:07;;;;;;;0.40;0.30;;;25.60;91.60;;;;;;4989209;28;20481;-80
2023/09/25 06:16:32;;;;;;;0.40;0.30;;;26.40;87.10;;;;;;4986764;28;20519;-82
2023/09/25 06:18:58;;;;;;;0.40;0.30;;;27.20;83.40;;;;;;5002865;28;20190;-84
2023/09/25 06:21:24;;;;;;;0.40;0.30;;;;;;;;;;5012568;28;20193;-81
2023/09/25 06:23:50;;;;;;;0.50;0.50;;;;;;;;;;5000036;28;20331;-82
2023/09/25 06:26:16;;;;;;;0.40;0.30;;;26.30;68.90;;;;;;4998001;28;20580;-78
2023/09/25 06:28:42;;;;;;;0.40;0.30;;;25.10;70.30;;;;;;4998335;28;20487;-81
2023/09/25 06:31:08;;;;;;;0.50;0.30;;;24.50;73.20;;;;;;4995748;28;20193;-85
2023/09/25 06:33:34;;;;;;;0.40;0.30;;;24.40;76.10;;;;;;4991541;28;20433;-79
2023/09/25 06:35:59;;;;;;;0.63;0.63;;;25.30;74.90;;;;;;4982784;28;20489;-83
2023/09/25 06:38:25;;;;;;;0.40;0.30;;;;;;;;;;4996678;28;20210;-80
2023/09/25 06:40:51;;;;;;;0.40;0.30;;;27.50;70.50;;;;;;4981303;28;20187;-82
2023/09/25 06:43:17;;;;;;;1.27;1.23;;;;;;;;;;4984037;28;20504;-83
2023/09/25 06:45:43;;;;;;;0.40;0.30;;;30.10;59.70;;;;;;4980103;28;20204;-84
2023/09/25 06:48:09;;;;;;;0.63;0.53;;;;;;;;;;4997732;28;20967;-81
2023/09/25 06:50:35;;;;;;;0.50;0.40;;;31.60;56.60;;;;;;5008525;28;20216;-74
2023/09/25 06:53:02;;;;;;;0.60;0.60;;;;;;;;;;4998265;28;20468;-79
2023/09/25 06:55:27;;;;;;;0.70;0.70;;;29.80;52.60;;;;;;5007188;28;20471;-84
2023/09/25 06:57:53;;;;;;;0.40;0.30;;;;;;;;;;4998703;28;20446;-76
2023/09/25 07:00:19;;;;;;;0.90;0.70;;;28.10;53.90;;;;;;4979391;28;20200;-85
2023/09/25 07:02:45;;;;;;;0.90;0.40;;;;;;;;;;4980372;28;20509;-78
2023/09/25 07:05:11;;;;;;;0.40;0.30;;;;;;;;;;4976432;28;20228;-82
2023/09/25 07:07:37;;;;;;;0.40;0.30;;;29.30;53.40;;;;;;4973607;28;20480;-78
2023/09/25 07:10:06;;;;;;;0.40;0.30;;;28.70;53.60;;;;;;4978112;28;20486;-82
2023/09/25 07:12:33;;;;;;;0.40;0.30;;;;;;;;;;4997658;28;20184;-76
2023/09/25 07:15:00;;;;;;;0.40;0.30;;;;;;;;;;5000574;28;20474;-83
2023/09/25 07:17:26;;;;;;;0.40;0.30;;;28.10;53.30;;;;;;4978017;28;20536;-80
2023/09/25 07:19:52;;;;;;;0.83;0.83;;;28.70;55.10;;;;;;4997483;28;20537;-84
2023/09/25 07:22:20;;;;;;;0.40;0.30;;;28.60;53.80;;;;;;4998717;28;20482;-83
2023/09/25 07:24:46;;;;;;;0.50;0.50;;;;;;;;;;4998619;28;20489;-80
2023/09/25 07:27:12;;;;;;;0.77;0.77;;;29.10;52.00;;;;;;4987609;28;20450;-83
2023/09/25 07:29:37;;;;;;;0.80;0.80;;;;;;;;;;4996960;28;20953;-81
2023/09/25 07:32:03;;;;;;;0.80;0.80;;;30.00;51.10;;;;;;4994353;28;20193;-81
2023/09/25 07:34:29;;;;;;;1.00;1.00;;;29.60;51.00;;;;;;4992952;28;20446;-85
2023/09/25 07:36:55;;;;;;;3.03;2.83;;;;;;;;;;4993333;28;21336;-79
2023/09/25 07:39:22;;;;;;;0.90;0.90;;;28.80;51.60;;;;;;4973974;28;20271;-80
2023/09/25 07:41:51;;;;;;;0.90;0.90;;;29.80;52.40;;;;;;4995299;28;20506;-83
2023/09/25 07:44:17;;;;;;;0.90;0.90;;;30.20;52.10;;;;;;4986987;28;20480;-80
2023/09/25 07:46:47;;;;;;;1.33;1.30;;;29.80;52.00;;;;;;4982726;28;20463;-81
2023/09/25 07:49:13;;;;;;;1.00;1.00;;;;;;;;;;4995122;28;23168;-80
2023/09/25 07:51:39;;;;;;;1.43;1.33;;;;;;;;;;4977578;28;20476;-85
2023/09/25 07:54:05;;;;;;;1.30;1.30;;;30.90;50.10;;;;;;4974202;28;20445;-84
2023/09/25 07:56:31;;;;;;;1.80;1.70;;;32.00;49.30;;;;;;4998397;28;20479;-81
2023/09/25 07:58:56;;;;;;;2.03;1.93;;;31.90;48.40;;;;;;5008358;28;20203;-77
2023/09/25 08:01:25;;;;;;;1.70;1.70;;;30.50;49.20;;;;;;4978459;28;20199;-78
2023/09/25 08:03:53;;;;;;;1.30;1.30;;;;;;;;;;4993926;28;21319;-77
2023/09/25 08:06:21;;;;;;;1.40;1.40;;;30.00;49.60;;;;;;4978102;28;20458;-79
2023/09/25 08:08:46;;;;;;;1.57;1.57;;;29.70;50.40;;;;;;4978471;28;20455;-83
2023/09/25 08:11:15;;;;;;;1.10;1.10;;;;;;;;;;4978994;28;20444;-83
2023/09/25 08:13:41;;;;;;;0.60;0.60;;;27.60;52.80;;;;;;4997265;28;20196;-82
2023/09/25 08:16:06;;;;;;;0.50;0.30;;;26.60;54.80;;;;;;4995123;28;20463;-82
2023/09/25 08:18:32;;;;;;;0.40;0.30;;;26.30;55.40;;;;;;4978332;28;22064;-82
2023/09/25 08:20:59;;;;;;;0.40;0.30;;;25.90;56.40;;;;;;4979111;28;20694;-85
2023/09/25 08:23:24;;;;;;;0.40;0.30;;;26.60;56.90;;;;;;4996730;28;20934;-82
2023/09/25 08:25:50;;;;;;;0.50;0.30;;;27.30;56.20;;;;;;4983028;28;21038;-79
2023/09/25 08:28:16;;;;;;;0.50;0.50;;;27.20;55.30;;;;;;4980289;28;20179;-80
2023/09/25 08:30:41;;;;;;;0.40;0.30;;;26.70;56.70;;;;;;4996643;28;20191;-83
2023/09/25 08:33:07;;;;;;;0.40;0.30;;;27.00;57.50;;;;;;4997257;28;20195;-82
2023/09/25 08:35:33;;;;;;;0.50;0.40;;;;;;;;;;4994107;28;20217;-82
2023/09/25 08:37:59;;;;;;;0.40;0.40;;;;;;;;;;4978191;28;20197;-83
2023/09/25 08:40:25;;;;;;;0.40;0.30;;;27.60;54.30;;;;;;4992242;28;20459;-80
2023/09/25 08:42:51;;;;;;;0.40;0.30;;;25.80;56.20;;;;;;4994900;28;20451;-84
2023/09/25 08:45:20;;;;;;;0.40;0.30;;;24.10;60.20;;;;;;4996795;28;20214;-81
2023/09/25 08:47:46;;;;;;;0.50;0.40;;;;;;;;;;4981469;28;20451;-77
2023/09/25 08:50:12;;;;;;;0.70;0.67;;;25.50;60.30;;;;;;4983611;28;20444;-81
2023/09/25 08:52:38;;;;;;;0.50;0.40;;;25.80;59.90;;;;;;4993056;28;20573;-81
2023/09/25 08:55:05;;;;;;;0.43;0.30;;;;;;;;;;4992147;28;20906;-76
2023/09/25 08:57:31;;;;;;;0.40;0.30;;;25.80;59.60;;;;;;4975369;28;20339;-83
2023/09/25 08:59:56;;;;;;;0.63;0.60;;;;;;;;;;4981625;28;20582;-80
2023/09/25 09:02:22;;;;;;;0.50;0.30;;;;;;;;;;4969365;28;20256;-81
2023/09/25 09:04:48;;;;;;;0.43;0.30;;;;;;;;;;4992024;28;20651;-80
2023/09/25 09:07:14;;;;;;;0.40;0.30;;;;;;;;;;5001958;28;20521;-76
2023/09/25 09:09:41;;;;;;;0.50;0.30;;;26.60;58.90;;;;;;4994198;28;20468;-83
2023/09/25 09:12:07;;;;;;;0.40;0.30;;;25.70;61.60;;;;;;4997389;28;20457;-83
2023/09/25 09:14:40;;;;;;;0.67;0.40;;;25.50;62.10;;;;;;4994257;28;20452;-83
2023/09/25 09:17:08;;;;;;;1.30;1.00;;;25.70;64.00;;;;;;4982871;28;20181;-80
2023/09/25 09:19:36;;;;;;;0.40;0.30;;;26.40;62.60;;;;;;4993546;28;20488;-79
2023/09/25 09:22:06;;;;;;;0.40;0.30;;;27.80;60.80;;;;;;4990837;28;20459;-81
2023/09/25 09:24:39;;;;;;;0.50;0.50;;;30.40;52.90;;;;;;4974706;28;20499;-82
2023/09/25 09:27:07;;;;;;;0.90;0.90;;;;;;;;;;4997676;28;20817;-84
2023/09/25 09:29:36;;;;;;;1.00;1.00;;;30.10;52.80;;;;;;4996734;28;20553;-78
2023/09/25 09:32:02;;;;;;;0.90;0.90;;;;;;;;;;4991462;28;20447;-81
2023/09/25 09:34:28;;;;;;;1.23;1.23;;;;;;;;;;4973734;28;21394;-79
2023/09/25 09:36:54;;;;;;;1.10;1.10;;;;;;;;;;4976347;28;20489;-82
2023/09/25 09:39:25;;;;;;;0.60;0.60;;;27.80;53.90;;;;;;4992817;28;20459;-79
2023/09/25 09:41:52;;;;;;;0.43;0.37;;;28.40;56.40;;;;;;5000109;28;20567;-80
2023/09/25 09:44:19;;;;;;;0.50;0.50;;;26.60;56.90;;;;;;4983759;28;20509;-83
2023/09/25 09:46:46;;;;;;;0.50;0.50;;;26.60;57.60;;;;;;4994405;28;20469;-82
2023/09/25 09:49:15;;;;;;;0.40;0.30;;;25.60;58.10;;;;;;4986672;28;20433;-83
2023/09/25 09:51:44;;;;;;;0.40;0.30;;;25.60;59.30;;;;;;4992613;28;20482;-79
2023/09/25 09:54:12;;;;;;;0.50;0.30;;;24.90;59.70;;;;;;4991622;28;20513;-80
2023/09/25 09:56:39;;;;;;;0.40;0.30;;;23.50;65.10;;;;;;4974742;28;20489;-82
2023/09/25 09:59:05;;;;;;;0.50;0.37;;;;;;;;;;4974955;28;20458;-81
2023/09/25 10:01:33;;;;;;;0.50;0.40;;;22.10;65.90;;;;;;4978935;28;20506;-78
2023/09/25 10:04:02;;;;;;;0.40;0.30;;;21.40;71.60;;;;;;4997659;28;20505;-83
2023/09/25 10:06:31;;;;;;;0.40;0.30;;;20.80;77.10;;;;;;4993545;28;20523;-78
2023/09/25 10:09:10;;;;;;;0.53;0.53;;;20.50;81.40;;;;;;5006181;28;20464;-83
2023/09/25 10:11:36;;;;;;;0.40;0.30;;;20.10;81.30;;;;;;4996720;28;20453;-81
2023/09/25 10:14:06;;;;;;;0.40;0.30;;;22.40;90.90;;;;;;4984006;28;20626;-76
2023/09/25 10:17:04;;;;;;;0.53;0.40;;;19.50;88.70;;;;;;4999440;28;20468;-80
2023/09/25 10:19:36;;;;;;;0.40;0.23;;;19.60;92.20;;;;;;4947138;28;20438;-80
2023/09/25 10:22:11;;;;;;;0.40;0.30;;;19.60;89.20;;;;;;4985307;28;20482;-84
2023/09/25 10:24:38;;;;;;;0.40;0.27;;;19.60;91.10;;;;;;4999035;28;20997;-79
2023/09/25 10:27:04;;;;;;;0.40;0.30;;;19.60;92.60;;;;;;4979688;28;20537;-80
2023/09/25 10:29:30;;;;;;;0.40;0.30;;;19.70;92.70;;;;;;4983600;28;20441;-84
2023/09/25 10:31:57;;;;;;;0.40;0.23;;;19.60;90.80;;;;;;4986928;28;20523;-80
2023/09/25 10:34:25;;;;;;;0.40;0.30;;;19.90;91.30;;;;;;4998278;28;20445;-79
2023/09/25 10:36:56;;;;;;;0.50;0.40;;;20.00;92.40;;;;;;5004029;28;21193;-80
2023/09/25 10:39:25;;;;;;;1.17;0.80;;;20.20;93.50;;;;;;4979227;28;20481;-83
2023/09/25 10:42:20;;;;;;;0.40;0.30;;;20.10;93.80;;;;;;4982540;28;20990;-80
2023/09/25 10:44:47;;;;;;;0.40;0.30;;;;;;;;;;4955926;28;20473;-78
2023/09/25 10:47:13;;;;;;;0.40;0.20;;;;;;;;;;4993584;28;20433;-79
2023/09/25 10:49:39;;;;;;;0.40;0.27;;;20.10;91.30;;;;;;4995215;28;20591;-81
2023/09/25 10:52:05;;;;;;;0.40;0.20;;;20.10;92.70;;;;;;4998492;28;20465;-80
2023/09/25 10:54:31;;;;;;;0.40;0.30;;;20.10;93.50;;;;;;4983194;28;21587;-78
2023/09/25 10:56:59;;;;;;;0.40;0.30;;;19.10;87.70;;;;;;4987599;28;20234;-77
2023/09/25 10:59:25;;;;;;;0.40;0.30;;;;;;;;;;5001132;28;20527;-80
2023/09/25 11:01:51;;;;;;;0.40;0.20;;;20.60;87.30;;;;;;4993705;28;20516;-80
2023/09/25 11:04:18;;;;;;;0.40;0.30;;;;;;;;;;5004262;28;20469;-80
2023/09/25 11:06:44;;;;;;;0.40;0.20;;;;;;;;;;4982929;28;20469;-81
2023/09/25 11:09:15;;;;;;;0.60;0.60;;;20.60;85.60;;;;;;4998334;28;20442;-82
2023/09/25 11:11:41;;;;;;;0.40;0.20;;;20.60;87.30;;;;;;5007285;28;20441;-77
2023/09/25 11:14:07;;;;;;;0.40;0.30;;;20.80;87.30;;;;;;5013735;28;20448;-76
2023/09/25 11:16:34;;;;;;;0.40;0.30;;;;;;;;;;5020307;28;20209;-76
2023/09/25 11:19:10;;;;;;;0.40;0.27;;;20.70;85.90;;;;;;5011413;28;20437;-76
2023/09/25 11:21:38;;;;;;;1.00;0.70;;;20.70;86.50;;;;;;5006895;28;20452;-76
2023/09/25 11:24:10;;;;;;;0.40;0.30;;;20.30;90.00;;;;;;5005027;28;20519;-78
2023/09/25 11:26:39;;;;;;;0.40;0.30;;;20.80;88.70;;;;;;5011777;28;20456;-80
2023/09/25 11:29:09;;;;;;;0.40;0.27;;;20.80;88.70;;;;;;5010182;28;20440;-78
2023/09/25 11:31:36;;;;;;;0.40;0.33;;;;;;;;;;4990451;28;20465;-82
2023/09/25 11:34:02;;;;;;;0.60;0.40;;;;;;;;;;4987323;28;20453;-83
2023/09/25 11:36:30;;;;;;;0.40;0.30;;;21.10;86.90;;;;;;5002099;28;20481;-77
2023/09/25 11:38:57;;;;;;;0.40;0.30;;;;;;;;;;5009051;28;20513;-81
2023/09/25 11:41:23;;;;;;;0.40;0.30;;;20.80;85.20;;;;;;4988055;28;20448;-77
2023/09/25 11:43:49;;;;;;;0.40;0.20;;;;;;;;;;5002170;28;20457;-79
2023/09/25 11:46:15;;;;;;;0.40;0.30;;;;;;;;;;4982194;28;20832;-79
2023/09/25 11:48:41;;;;;;;0.40;0.30;;;;;;;;;;5002410;28;20446;-83
2023/09/25 11:51:07;;;;;;;0.40;0.30;;;;;;;;;;5003210;28;20500;-81
2023/09/25 11:53:33;;;;;;;0.40;0.30;;;;;;;;;;5002387;28;20467;-79
2023/09/25 11:55:59;;;;;;;0.50;0.40;;;;;;;;;;5003812;28;20474;-79
2023/09/25 11:58:28;;;;;;;0.40;0.30;;;;;;;;;;4989259;28;20461;-83
2023/09/25 12:00:54;;;;;;;2.93;0.97;;;;;;;;;;4990392;28;20440;-80
2023/09/25 12:03:20;;;;;;;0.40;0.30;;;21.90;90.10;;;;;;5009398;28;20437;-82
2023/09/25 12:05:45;;;;;;;0.50;0.40;;;21.90;86.20;;;;;;5013515;28;20476;-83
2023/09/25 12:08:13;;;;;;;0.40;0.20;;;21.70;86.20;;;;;;5007129;28;20207;-81
2023/09/25 12:10:39;;;;;;;0.90;0.90;;;21.90;85.90;;;;;;4989130;28;20193;-85
2023/09/25 12:13:08;;;;;;;0.40;0.30;;;21.90;83.50;;;;;;5009246;28;20446;-80
2023/09/25 12:15:34;;;;;;;0.40;0.30;;;;;;;;;;5006079;28;20493;-84
2023/09/25 12:18:03;;;;;;;0.50;0.40;;;22.10;86.30;;;;;;5007359;28;20449;-82
2023/09/25 12:20:29;;;;;;;0.40;0.30;;;;;;;;;;5011049;28;20438;-84
2023/09/25 12:22:56;;;;;;;0.40;0.30;;;22.00;84.30;;;;;;5011694;28;20503;-83
2023/09/25 12:25:23;;;;;;;0.50;0.40;;;22.20;82.10;;;;;;5015396;28;20733;-82
2023/09/25 12:27:49;;;;;;;0.40;0.30;;;;;;;;;;5015071;28;20492;-80
2023/09/25 12:30:17;;;;;;;0.40;0.30;;;21.80;85.60;;;;;;5011937;28;20449;-84
2023/09/25 12:32:49;;;;;;;0.40;0.30;;;21.70;85.20;;;;;;5019121;28;20448;-80
2023/09/25 12:35:16;;;;;;;0.40;0.30;;;21.90;84.60;;;;;;5014205;28;20473;-81
2023/09/25 12:37:43;;;;;;;0.40;0.30;;;22.10;84.00;;;;;;5003354;28;20515;-84
2023/09/25 12:40:10;;;;;;;0.80;0.40;;;22.40;90.00;;;;;;5002549;28;20447;-83
2023/09/25 12:42:36;;;;;;;0.40;0.20;;;22.40;85.40;;;;;;5002636;28;20446;-82
2023/09/25 12:45:04;;;;;;;0.40;0.30;;;;;;;;;;5008338;28;20574;-86
2023/09/25 12:47:30;;;;;;;0.40;0.30;;;22.60;84.20;;;;;;4987949;28;20477;-83
2023/09/25 12:49:56;;;;;;;0.40;0.20;;;22.70;84.60;;;;;;5001940;28;20445;-83
2023/09/25 12:52:21;;;;;;;0.40;0.30;;;22.80;82.60;;;;;;5002930;28;20441;-82
2023/09/25 12:54:50;;;;;;;0.40;0.30;;;22.80;82.00;;;;;;4999070;28;21185;-85
2023/09/25 12:57:17;;;;;;;0.40;0.30;;;22.80;82.40;;;;;;4999144;28;20187;-81
2023/09/25 12:59:46;;;;;;;0.40;0.30;;;22.80;81.40;;;;;;4998072;28;20457;-83
2023/09/25 13:02:12;;;;;;;0.50;0.40;;;;;;;;;;4989051;28;20460;-85
2023/09/25 13:04:38;;;;;;;0.40;0.30;;;;;;;;;;4975881;28;20853;-83
2023/09/25 13:07:04;;;;;;;0.40;0.30;;;;;;;;;;5000212;28;20457;-81
2023/09/25 13:09:30;;;;;;;0.40;0.30;;;;;;;;;;4978499;28;20989;-83
2023/09/25 13:11:57;;;;;;;0.40;0.30;;;;;;;;;;5002887;28;20444;-81